Squaw Valley, California
Current Conditions -  °F | °C
As of 8:53 AM on Wednesday 22 Oct 2014 (Local Time) from KFAT Reporting Station
Overcast Overcast  
Wind Chill: 57°   Ceiling: 25000
Heat Index: 57°   Visibility: 10mi
Dew Point: 44°   Wind: 5mph
Humidity: 62%   Direction: 90°E
Pressure: 30.07"   Gusts: NA
Location:  36.74°N, 119.25°W
Report Text: KFAT 221553Z 09004KT 10SM FEW080 SCT150 OVC250 14/07 A3007 RMK AO2 SLP180 MTNS OBSC HZ DSNT N-E-S T01390067
Loading
Personal Weather Stations






























Interactive Weather Map
Tropical Storm Tracking
New forecast layout! Learn more

10-Day Weather Forecast

Advertisements
Track Severe Weather on mobile